createdAt,value
2019-05-28T00:01:39.152Z,1.92
2019-05-28T00:04:08.040Z,2.17
2019-05-28T00:06:37.165Z,2.25
2019-05-28T00:09:07.765Z,2.62
2019-05-28T00:11:36.271Z,2.20
2019-05-28T00:14:05.202Z,2.70
2019-05-28T00:16:33.735Z,2.42
2019-05-28T00:19:02.595Z,2.12
2019-05-28T00:21:31.240Z,2.87
2019-05-28T00:23:59.853Z,2.35
2019-05-28T00:26:28.344Z,2.80
2019-05-28T00:28:57.103Z,2.58
2019-05-28T00:31:25.931Z,1.77
2019-05-28T00:33:54.569Z,2.08
2019-05-28T00:36:23.026Z,2.65
2019-05-28T00:38:51.466Z,2.95
2019-05-28T00:41:19.946Z,2.60
2019-05-28T00:43:48.402Z,2.72
2019-05-28T00:46:17.198Z,2.52
2019-05-28T00:48:46.191Z,3.02
2019-05-28T00:51:15.104Z,2.30
2019-05-28T00:53:44.052Z,2.00
2019-05-28T00:56:13.027Z,3.72
2019-05-28T00:58:41.888Z,2.42
2019-05-28T01:01:10.330Z,3.35
2019-05-28T01:03:39.014Z,2.83
2019-05-28T01:06:07.824Z,2.90
2019-05-28T01:08:36.605Z,2.83
2019-05-28T01:11:05.472Z,3.10
2019-05-28T01:13:34.264Z,3.05
2019-05-28T01:16:02.920Z,2.92
2019-05-28T01:18:31.400Z,2.55
2019-05-28T01:21:01.975Z,3.05
2019-05-28T01:23:30.756Z,2.33
2019-05-28T01:25:59.771Z,2.20
2019-05-28T01:28:28.235Z,3.65
2019-05-28T01:31:00.539Z,2.20
2019-05-28T01:33:27.223Z,2.00
2019-05-28T01:35:55.994Z,2.30
2019-05-28T01:38:24.887Z,2.25
2019-05-28T01:40:53.369Z,2.30
2019-05-28T01:43:22.152Z,2.60
2019-05-28T01:45:50.641Z,2.50
2019-05-28T01:48:19.337Z,2.58
2019-05-28T01:50:48.127Z,2.50
2019-05-28T01:53:16.606Z,2.15
2019-05-28T01:55:45.056Z,2.75
2019-05-28T01:58:13.769Z,2.40
2019-05-28T02:00:42.313Z,2.55
2019-05-28T02:03:11.044Z,2.30
2019-05-28T02:05:39.798Z,2.62
2019-05-28T02:08:08.501Z,2.52
2019-05-28T02:10:38.022Z,2.52
2019-05-28T02:13:06.508Z,2.20
2019-05-28T02:15:35.019Z,2.95
2019-05-28T02:18:03.819Z,2.67
2019-05-28T02:20:32.324Z,3.02
2019-05-28T02:23:02.123Z,3.20
2019-05-28T02:25:31.954Z,2.60
2019-05-28T02:28:00.639Z,2.62
2019-05-28T02:30:29.816Z,2.55
2019-05-28T02:32:59.772Z,2.52
2019-05-28T02:35:28.251Z,3.47
2019-05-28T02:37:56.786Z,3.45
2019-05-28T02:40:27.348Z,3.40
2019-05-28T02:42:56.174Z,2.77
2019-05-28T02:45:24.845Z,2.92
2019-05-28T02:47:53.292Z,2.83
2019-05-28T02:50:41.451Z,2.70
2019-05-28T02:53:10.280Z,2.60
2019-05-28T02:55:40.614Z,2.95
2019-05-28T02:58:09.374Z,2.90
2019-05-28T03:00:38.953Z,2.90
2019-05-28T03:03:08.134Z,3.08
2019-05-28T03:05:38.346Z,4.15
2019-05-28T03:08:06.869Z,3.30
2019-05-28T03:13:10.887Z,2.58
2019-05-28T03:15:48.126Z,2.98
2019-05-28T03:18:19.047Z,2.90
2019-05-28T03:20:48.358Z,2.33
2019-05-28T03:23:17.788Z,2.90
2019-05-28T03:25:47.933Z,2.95
2019-05-28T03:28:16.806Z,2.52
2019-05-28T03:30:45.264Z,2.70
2019-05-28T03:33:13.808Z,2.65
2019-05-28T03:35:44.299Z,2.98
2019-05-28T03:38:13.893Z,2.47
2019-05-28T03:40:45.091Z,2.72
2019-05-28T03:43:14.356Z,3.47
2019-05-28T03:45:42.868Z,2.60
2019-05-28T03:48:11.416Z,2.25
2019-05-28T03:50:40.183Z,3.35
2019-05-28T03:53:09.409Z,2.52
2019-05-28T03:55:37.965Z,2.62
2019-05-28T03:58:06.465Z,3.22
2019-05-28T04:00:35.265Z,3.30
2019-05-28T04:03:04.731Z,5.70
2019-05-28T04:05:33.267Z,4.17
2019-05-28T04:08:01.733Z,4.03
2019-05-28T04:10:30.349Z,4.30
2019-05-28T04:12:59.155Z,4.75
2019-05-28T04:15:27.624Z,2.90
2019-05-28T04:17:56.104Z,2.33
2019-05-28T04:20:25.549Z,2.30
2019-05-28T04:22:54.113Z,2.55
2019-05-28T04:25:22.883Z,2.52
2019-05-28T04:27:51.353Z,2.17
2019-05-28T04:30:19.921Z,2.20
2019-05-28T04:32:48.471Z,2.02
2019-05-28T04:35:16.920Z,2.45
2019-05-28T04:37:47.015Z,2.22
2019-05-28T04:40:15.653Z,2.20
2019-05-28T04:42:44.170Z,2.83
2019-05-28T04:45:13.152Z,2.27
2019-05-28T04:47:41.650Z,2.58
2019-05-28T04:50:10.270Z,2.47
2019-05-28T04:52:39.161Z,2.58
2019-05-28T04:55:07.700Z,3.20
2019-05-28T04:57:37.674Z,3.05
2019-05-28T05:00:08.166Z,2.83
2019-05-28T05:02:36.939Z,2.70
2019-05-28T05:05:09.108Z,2.65
2019-05-28T05:07:37.555Z,2.58
2019-05-28T05:10:09.544Z,3.15
2019-05-28T05:12:38.366Z,3.27
2019-05-28T05:15:07.684Z,3.25
2019-05-28T05:17:37.624Z,3.72
2019-05-28T05:20:09.844Z,3.10
2019-05-28T05:22:38.287Z,3.45
2019-05-28T05:25:07.402Z,3.80
2019-05-28T05:27:35.879Z,4.10
2019-05-28T05:30:06.917Z,3.95
2019-05-28T05:32:35.479Z,3.92
2019-05-28T05:35:06.151Z,3.95
2019-05-28T05:37:35.468Z,4.28
2019-05-28T05:40:06.581Z,4.05
2019-05-28T05:42:36.102Z,4.03
2019-05-28T05:45:08.616Z,3.83
2019-05-28T05:47:37.199Z,4.30
2019-05-28T05:50:08.897Z,4.90
2019-05-28T05:52:38.205Z,4.85
2019-05-28T05:55:08.206Z,5.00
2019-05-28T05:57:38.104Z,5.20
2019-05-28T06:00:11.545Z,4.20
2019-05-28T06:02:39.154Z,3.80
2019-05-28T06:05:08.072Z,4.05
2019-05-28T06:07:37.000Z,4.58
2019-05-28T06:10:10.514Z,3.60
2019-05-28T06:12:39.119Z,3.40
2019-05-28T06:15:07.893Z,3.58
2019-05-28T06:17:36.837Z,3.50
2019-05-28T06:20:08.829Z,3.52
2019-05-28T06:22:37.377Z,3.62
2019-05-28T06:25:06.412Z,3.17
2019-05-28T06:27:35.345Z,3.15
2019-05-28T06:30:06.655Z,2.80
2019-05-28T06:32:36.929Z,2.90
2019-05-28T06:35:06.610Z,3.22
2019-05-28T06:37:35.415Z,3.22
2019-05-28T06:40:08.438Z,3.17
2019-05-28T06:42:39.679Z,2.58
2019-05-28T06:45:08.594Z,3.15
2019-05-28T06:47:37.411Z,2.67
2019-05-28T06:50:10.454Z,4.08
2019-05-28T06:52:41.252Z,3.55
2019-05-28T06:55:10.389Z,3.70
2019-05-28T06:57:38.864Z,4.62
2019-05-28T07:00:08.533Z,4.05
2019-05-28T07:02:37.113Z,5.08
2019-05-28T07:05:09.291Z,4.08
2019-05-28T07:07:41.151Z,5.65
2019-05-28T07:10:12.957Z,6.05
2019-05-28T07:12:45.679Z,5.62
2019-05-28T07:15:14.607Z,6.42
2019-05-28T07:17:43.570Z,6.28
2019-05-28T07:20:12.866Z,6.60
2019-05-28T07:22:42.439Z,7.42
2019-05-28T07:25:15.048Z,7.62
2019-05-28T07:27:43.873Z,7.37
2019-05-28T07:30:12.958Z,6.58
2019-05-28T07:32:41.574Z,6.72
2019-05-28T07:35:10.101Z,4.40
2019-05-28T07:37:38.933Z,3.85
2019-05-28T07:40:08.271Z,2.70
2019-05-28T07:42:38.693Z,2.35
2019-05-28T07:45:09.585Z,2.22
2019-05-28T07:47:38.432Z,2.60
2019-05-28T07:50:09.712Z,2.08
2019-05-28T07:52:38.553Z,2.00
2019-05-28T07:55:07.181Z,1.77
2019-05-28T07:57:35.698Z,1.82
2019-05-28T08:00:06.225Z,1.80
2019-05-28T08:02:34.850Z,1.98
2019-05-28T08:05:04.869Z,1.95
2019-05-28T08:07:33.751Z,2.10
2019-05-28T08:10:02.554Z,1.35
2019-05-28T08:12:31.341Z,1.40
2019-05-28T08:15:01.833Z,11.40
2019-05-28T08:17:30.693Z,15.75
2019-05-28T08:19:59.546Z,5.60
2019-05-28T08:22:41.892Z,2.35
2019-05-28T08:25:00.234Z,2.50
2019-05-28T08:27:29.076Z,2.10
2019-05-28T08:30:01.672Z,2.20
2019-05-28T08:32:33.491Z,2.47
2019-05-28T08:35:05.515Z,2.05
2019-05-28T08:37:32.217Z,2.10
2019-05-28T08:40:02.243Z,1.87
2019-05-28T08:42:31.303Z,1.70
2019-05-28T08:45:00.309Z,2.40
2019-05-28T08:47:29.129Z,2.20
2019-05-28T08:49:58.454Z,2.10
2019-05-28T08:52:26.961Z,2.27
2019-05-28T08:54:55.764Z,1.92
2019-05-28T08:57:32.956Z,3.22
2019-05-28T09:00:01.551Z,2.37
2019-05-28T09:02:32.967Z,2.35
2019-05-28T09:05:24.456Z,3.22
2019-05-28T09:07:38.650Z,2.98
2019-05-28T09:10:11.065Z,3.30
2019-05-28T09:12:46.743Z,2.75
2019-05-28T09:15:16.076Z,2.65
2019-05-28T09:17:44.526Z,2.75
2019-05-28T09:20:13.158Z,14.30
2019-05-28T09:22:41.675Z,3.08
2019-05-28T09:25:12.119Z,2.37
2019-05-28T09:27:42.681Z,2.70
2019-05-28T09:30:12.897Z,2.10
2019-05-28T09:32:41.814Z,2.02
2019-05-28T09:35:11.366Z,2.20
2019-05-28T09:37:40.898Z,2.40
2019-05-28T09:40:10.088Z,2.87
2019-05-28T09:42:39.094Z,2.30
2019-05-28T09:45:21.886Z,1.80
2019-05-28T09:47:38.982Z,2.30
2019-05-28T09:50:30.077Z,2.62
2019-05-28T09:52:54.327Z,2.60
2019-05-28T09:55:15.028Z,3.25
2019-05-28T09:57:47.785Z,3.12
2019-05-28T10:00:18.260Z,2.77
2019-05-28T10:02:46.843Z,3.05
2019-05-28T10:05:16.070Z,3.50
2019-05-28T10:07:44.546Z,3.80
2019-05-28T10:10:13.297Z,3.87
2019-05-28T10:12:41.896Z,3.90
2019-05-28T10:15:13.971Z,4.12
2019-05-28T10:17:44.079Z,3.87
2019-05-28T10:20:14.741Z,4.40
2019-05-28T10:22:44.868Z,3.50
2019-05-28T10:25:17.381Z,3.98
2019-05-28T10:28:00.008Z,5.00
2019-05-28T10:30:17.262Z,4.65
2019-05-28T10:32:45.722Z,4.12
2019-05-28T10:35:15.868Z,4.10
2019-05-28T10:37:44.627Z,4.00
2019-05-28T10:40:14.009Z,3.90
2019-05-28T10:42:44.029Z,3.80
2019-05-28T10:45:13.466Z,4.10
2019-05-28T10:47:42.327Z,4.90
2019-05-28T10:50:11.750Z,4.28
2019-05-28T10:52:40.289Z,4.65
2019-05-28T10:55:09.075Z,3.58
2019-05-28T10:57:37.802Z,5.05
2019-05-28T11:00:10.127Z,5.42
2019-05-28T11:02:39.118Z,4.97
2019-05-28T11:05:09.766Z,5.17
2019-05-28T11:07:38.620Z,4.00
2019-05-28T11:10:23.079Z,4.20
2019-05-28T11:12:38.780Z,4.78
2019-05-28T11:15:09.749Z,5.00
2019-05-28T11:17:38.547Z,4.67
2019-05-28T11:20:12.407Z,5.10
2019-05-28T11:22:43.538Z,4.78
2019-05-28T11:25:14.252Z,4.33
2019-05-28T11:27:43.426Z,5.12
2019-05-28T11:30:13.828Z,3.42
2019-05-28T11:32:42.614Z,3.98
2019-05-28T11:35:12.941Z,3.00
2019-05-28T11:37:41.478Z,2.85
2019-05-28T11:40:14.142Z,3.30
2019-05-28T11:42:42.987Z,3.42
2019-05-28T11:45:14.837Z,3.98
2019-05-28T11:47:42.769Z,3.60
2019-05-28T11:50:11.920Z,3.00
2019-05-28T11:52:40.730Z,3.12
2019-05-28T11:55:14.270Z,3.50
2019-05-28T11:57:43.255Z,3.47
2019-05-28T12:00:13.609Z,3.45
2019-05-28T12:02:43.632Z,4.25
2019-05-28T12:05:12.921Z,4.00
2019-05-28T12:07:41.734Z,4.35
2019-05-28T12:10:11.159Z,3.58
2019-05-28T12:12:39.705Z,2.80
2019-05-28T12:15:11.080Z,3.15
2019-05-28T12:17:43.093Z,2.58
2019-05-28T12:20:12.020Z,2.55
2019-05-28T12:22:43.072Z,2.10
2019-05-28T12:25:13.549Z,2.17
2019-05-28T12:27:42.281Z,2.50
2019-05-28T12:30:13.088Z,1.98
2019-05-28T12:32:41.890Z,2.15
2019-05-28T12:35:26.642Z,2.25
2019-05-28T12:37:47.908Z,2.67
2019-05-28T12:40:11.614Z,3.00
2019-05-28T12:42:40.843Z,2.30
2019-05-28T12:45:13.193Z,3.05
2019-05-28T12:47:41.505Z,3.10
2019-05-28T12:50:18.974Z,2.72
2019-05-28T12:52:40.685Z,3.02
2019-05-28T12:55:10.988Z,2.98
2019-05-28T12:57:39.734Z,2.17
2019-05-28T13:00:15.223Z,1.80
2019-05-28T13:02:44.164Z,2.33
2019-05-28T13:05:15.438Z,1.98
2019-05-28T13:07:44.272Z,1.47
2019-05-28T13:10:13.861Z,1.57
2019-05-28T13:12:45.355Z,1.67
2019-05-28T13:15:14.272Z,1.52
2019-05-28T13:17:42.766Z,1.60
2019-05-28T13:20:11.748Z,1.60
2019-05-28T13:22:40.284Z,1.75
2019-05-28T13:25:09.767Z,1.70
2019-05-28T13:27:38.293Z,2.02
2019-05-28T13:30:14.441Z,1.80
2019-05-28T13:32:43.036Z,2.02
2019-05-28T13:35:16.400Z,1.92
2019-05-28T13:37:46.204Z,2.40
2019-05-28T13:40:15.837Z,2.02
2019-05-28T13:42:45.307Z,1.98
2019-05-28T13:45:15.167Z,1.80
2019-05-28T13:47:44.089Z,1.75
2019-05-28T13:50:14.853Z,1.85
2019-05-28T13:52:43.399Z,1.62
2019-05-28T13:55:12.286Z,1.57
2019-05-28T13:57:40.998Z,1.22
2019-05-28T14:00:15.308Z,0.90
2019-05-28T14:02:46.432Z,1.25
2019-05-28T14:05:14.759Z,0.90
2019-05-28T14:07:43.353Z,1.30
2019-05-28T14:10:12.234Z,1.50
2019-05-28T14:12:41.028Z,1.52
2019-05-28T14:15:10.709Z,1.67
2019-05-28T14:17:39.178Z,1.30
2019-05-28T14:20:09.860Z,1.50
2019-05-28T14:22:38.672Z,1.30
2019-05-28T14:25:09.493Z,0.80
2019-05-28T14:27:38.220Z,0.70
2019-05-28T14:30:09.029Z,0.70
2019-05-28T14:32:37.848Z,0.70
2019-05-28T14:35:09.476Z,0.40
2019-05-28T14:37:38.093Z,0.60
2019-05-28T14:40:07.356Z,0.60
2019-05-28T14:42:35.878Z,0.53
2019-05-28T14:45:08.577Z,0.57
2019-05-28T14:47:37.343Z,0.62
2019-05-28T14:50:09.516Z,1.00
2019-05-28T14:52:39.104Z,0.60
2019-05-28T14:55:08.877Z,1.20
2019-05-28T14:57:37.483Z,0.90
2019-05-28T15:00:10.979Z,1.05
2019-05-28T15:02:39.710Z,0.88
2019-05-28T15:05:09.170Z,0.88
2019-05-28T15:07:38.002Z,0.93
2019-05-28T15:10:08.071Z,0.98
2019-05-28T15:12:36.614Z,0.82
2019-05-28T15:15:08.201Z,1.02
2019-05-28T15:17:37.941Z,0.82
2019-05-28T15:20:08.704Z,1.12
2019-05-28T15:22:37.632Z,1.02
2019-05-28T15:25:07.993Z,1.07
2019-05-28T15:27:36.633Z,1.30
2019-05-28T15:30:10.774Z,1.40
2019-05-28T15:32:40.679Z,1.55
2019-05-28T15:35:10.672Z,1.40
2019-05-28T15:37:41.848Z,1.90
2019-05-28T15:40:14.923Z,1.10
2019-05-28T15:42:45.883Z,1.70
2019-05-28T15:45:18.046Z,1.47
2019-05-28T15:47:48.163Z,1.30
2019-05-28T15:50:18.216Z,1.55
2019-05-28T15:52:47.126Z,1.27
2019-05-28T15:55:18.703Z,1.60
2019-05-28T15:57:48.848Z,2.00
2019-05-28T16:00:23.399Z,2.10
2019-05-28T16:02:52.871Z,1.80
2019-05-28T16:05:21.931Z,1.85
2019-05-28T16:07:52.971Z,1.87
2019-05-28T16:10:21.570Z,1.77
2019-05-28T16:12:52.790Z,1.95
2019-05-28T16:15:21.552Z,1.70
2019-05-28T16:17:50.054Z,1.65
2019-05-28T16:20:18.723Z,1.62
2019-05-28T16:22:47.278Z,1.55
2019-05-28T16:25:16.190Z,1.57
2019-05-28T16:27:44.652Z,1.42
2019-05-28T16:30:14.634Z,1.67
2019-05-28T16:32:44.275Z,1.95
2019-05-28T16:35:15.811Z,2.17
2019-05-28T16:37:44.299Z,2.08
2019-05-28T16:40:16.279Z,2.00
2019-05-28T16:42:45.173Z,2.40
2019-05-28T16:45:15.755Z,2.20
2019-05-28T16:47:44.219Z,2.45
2019-05-28T16:50:16.555Z,2.60
2019-05-28T16:52:45.294Z,2.40
2019-05-28T16:55:15.481Z,2.30
2019-05-28T16:57:46.777Z,2.47
2019-05-28T17:00:17.390Z,2.70
2019-05-28T17:02:45.918Z,2.70
2019-05-28T17:05:14.795Z,2.17
2019-05-28T17:07:43.557Z,2.25
2019-05-28T17:10:13.057Z,2.50
2019-05-28T17:12:42.646Z,2.47
2019-05-28T17:15:14.358Z,2.15
2019-05-28T17:17:42.819Z,1.90
2019-05-28T17:20:11.706Z,1.77
2019-05-28T17:22:40.483Z,1.62
2019-05-28T17:25:12.022Z,2.25
2019-05-28T17:27:40.749Z,1.98
2019-05-28T17:30:18.847Z,2.27
2019-05-28T17:32:40.250Z,2.25
2019-05-28T17:35:09.239Z,2.22
2019-05-28T17:37:39.569Z,1.80
2019-05-28T17:40:08.962Z,2.25
2019-05-28T17:42:38.287Z,2.20
2019-05-28T17:45:09.496Z,2.05
2019-05-28T17:47:43.538Z,2.37
2019-05-28T17:50:10.544Z,1.72
2019-05-28T17:52:39.393Z,2.25
2019-05-28T17:55:08.193Z,2.42
2019-05-28T17:57:37.150Z,2.92
2019-05-28T18:00:06.594Z,2.67
2019-05-28T18:02:35.334Z,2.45
2019-05-28T18:05:05.781Z,2.70
2019-05-28T18:07:35.151Z,2.35
2019-05-28T18:10:13.752Z,2.50
2019-05-28T18:12:43.816Z,2.42
2019-05-28T18:15:12.718Z,2.47
2019-05-28T18:17:41.564Z,2.40
2019-05-28T18:20:14.780Z,2.40
2019-05-28T18:22:41.879Z,2.33
2019-05-28T18:25:13.549Z,2.22
2019-05-28T18:27:42.353Z,2.30
2019-05-28T18:30:11.073Z,2.33
2019-05-28T18:32:39.702Z,2.35
2019-05-28T18:35:10.629Z,2.50
2019-05-28T18:37:41.710Z,2.22
2019-05-28T18:40:12.096Z,2.17
2019-05-28T18:42:40.878Z,1.52
2019-05-28T18:45:10.526Z,1.85
2019-05-28T18:47:40.107Z,1.50
2019-05-28T18:50:09.806Z,1.90
2019-05-28T18:52:39.850Z,1.67
2019-05-28T18:55:08.687Z,1.52
2019-05-28T18:57:37.475Z,1.92
2019-05-28T19:00:09.734Z,1.60
2019-05-28T19:02:38.226Z,1.65
2019-05-28T19:05:10.368Z,1.60
2019-05-28T19:07:38.866Z,1.50
2019-05-28T19:10:08.972Z,1.60
2019-05-28T19:12:37.881Z,1.50
2019-05-28T19:15:07.855Z,1.50
2019-05-28T19:17:36.628Z,1.42
2019-05-28T19:20:07.428Z,1.55
2019-05-28T19:22:35.881Z,1.57
2019-05-28T19:25:07.426Z,1.85
2019-05-28T19:27:36.714Z,1.60
2019-05-28T19:30:08.938Z,1.32
2019-05-28T19:32:39.219Z,1.27
2019-05-28T19:35:08.414Z,1.20
2019-05-28T19:37:37.224Z,1.27
2019-05-28T19:40:07.609Z,1.70
2019-05-28T19:42:37.692Z,1.75
2019-05-28T19:45:10.970Z,1.35
2019-05-28T19:47:39.750Z,1.22
2019-05-28T19:50:09.480Z,1.60
2019-05-28T19:52:39.216Z,1.50
2019-05-28T19:55:09.305Z,1.25
2019-05-28T19:57:38.836Z,1.25
2019-05-28T20:00:09.290Z,1.42
2019-05-28T20:02:38.167Z,1.70
2019-05-28T20:05:09.457Z,1.32
2019-05-28T20:07:40.959Z,1.50
2019-05-28T20:10:10.180Z,1.15
2019-05-28T20:12:39.203Z,1.20
2019-05-28T20:15:11.241Z,1.42
2019-05-28T20:17:40.080Z,1.55
2019-05-28T20:20:10.191Z,1.22
2019-05-28T20:22:38.857Z,1.60
2019-05-28T20:25:08.337Z,1.55
2019-05-28T20:27:37.160Z,1.60
2019-05-28T20:30:07.467Z,1.42
2019-05-28T20:32:35.919Z,1.45
2019-05-28T20:35:07.678Z,1.75
2019-05-28T20:37:36.323Z,1.65
2019-05-28T20:40:08.058Z,1.80
2019-05-28T20:42:38.777Z,1.70
2019-05-28T20:45:09.035Z,1.57
2019-05-28T20:47:38.107Z,1.90
2019-05-28T20:50:09.441Z,1.37
2019-05-28T20:52:38.539Z,1.80
2019-05-28T20:55:09.815Z,1.62
2019-05-28T20:57:38.685Z,1.40
2019-05-28T21:00:12.872Z,1.70
2019-05-28T21:02:41.496Z,1.52
2019-05-28T21:05:10.542Z,1.55
2019-05-28T21:07:39.194Z,1.40
2019-05-28T21:10:09.718Z,1.45
2019-05-28T21:12:44.548Z,1.40
2019-05-28T21:15:15.985Z,1.50
2019-05-28T21:17:44.401Z,1.50
2019-05-28T21:20:18.076Z,1.85
2019-05-28T21:22:47.104Z,1.82
2019-05-28T21:25:16.239Z,1.65
2019-05-28T21:27:44.776Z,1.62
2019-05-28T21:30:15.756Z,1.75
2019-05-28T21:32:47.252Z,1.42
2019-05-28T21:35:15.848Z,1.60
2019-05-28T21:37:44.663Z,1.55
2019-05-28T21:40:14.650Z,1.35
2019-05-28T21:42:58.256Z,2.60
2019-05-28T21:45:14.759Z,1.50
2019-05-28T21:47:43.733Z,1.67
2019-05-28T21:50:13.002Z,1.70
2019-05-28T21:52:42.446Z,1.82
2019-05-28T21:55:11.330Z,1.92
2019-05-28T21:57:41.780Z,1.27
2019-05-28T22:00:19.891Z,1.42
2019-05-28T22:02:48.407Z,1.42
2019-05-28T22:05:18.748Z,1.35
2019-05-28T22:07:48.092Z,1.25
2019-05-28T22:10:18.085Z,1.47
2019-05-28T22:12:46.664Z,1.62
2019-05-28T22:15:15.561Z,1.57
2019-05-28T22:17:45.847Z,2.05
2019-05-28T22:20:14.933Z,1.67
2019-05-28T22:22:43.381Z,1.35
2019-05-28T22:25:14.898Z,1.65
2019-05-28T22:27:43.389Z,1.45
2019-05-28T22:30:12.699Z,1.27
2019-05-28T22:32:41.655Z,1.65
2019-05-28T22:35:11.672Z,1.37
2019-05-28T22:37:41.799Z,1.72
2019-05-28T22:40:11.183Z,1.90
2019-05-28T22:42:40.081Z,1.35
2019-05-28T22:45:09.437Z,1.70
2019-05-28T22:47:38.138Z,1.50
2019-05-28T22:50:19.466Z,1.32
2019-05-28T22:52:39.645Z,1.67
2019-05-28T22:55:09.325Z,1.62
2019-05-28T22:57:38.136Z,1.40
2019-05-28T23:00:08.687Z,1.75
2019-05-28T23:02:37.477Z,2.00
2019-05-28T23:05:07.403Z,1.40
2019-05-28T23:07:36.004Z,2.08
2019-05-28T23:10:07.723Z,2.17
2019-05-28T23:12:36.754Z,1.95
2019-05-28T23:15:10.450Z,1.47
2019-05-28T23:17:39.386Z,1.65
2019-05-28T23:20:09.303Z,1.72
2019-05-28T23:22:38.171Z,2.02
2019-05-28T23:25:11.569Z,2.02
2019-05-28T23:27:40.606Z,2.00
2019-05-28T23:30:22.469Z,1.70
2019-05-28T23:32:41.008Z,1.70
2019-05-28T23:35:11.124Z,1.95
2019-05-28T23:37:39.607Z,2.05
2019-05-28T23:40:09.464Z,2.02
2019-05-28T23:42:40.089Z,2.10
2019-05-28T23:45:11.759Z,2.30
2019-05-28T23:47:40.355Z,1.30
2019-05-28T23:50:13.006Z,1.92
2019-05-28T23:52:40.709Z,1.57
2019-05-28T23:55:09.976Z,1.50
2019-05-28T23:57:50.677Z,1.90
